sensor_id;sensor_type;location;lat;lon;timestamp;pressure;altitude;pressure_sealevel;temperature;humidity
76311;BME280;65120;59.304;18.294;2023-02-12T00:00:20;102829.78;;;-2.64;67.95
76311;BME280;65120;59.304;18.294;2023-02-12T00:02:47;102830.66;;;-2.63;67.99
76311;BME280;65120;59.304;18.294;2023-02-12T00:05:14;102835.78;;;-2.63;67.75
76311;BME280;65120;59.304;18.294;2023-02-12T00:07:43;102808.78;;;-2.72;68.02
76311;BME280;65120;59.304;18.294;2023-02-12T00:10:10;102826.34;;;-2.64;67.96
76311;BME280;65120;59.304;18.294;2023-02-12T00:12:38;102822.88;;;-2.65;67.90
76311;BME280;65120;59.304;18.294;2023-02-12T00:15:05;102820.31;;;-2.65;67.85
76311;BME280;65120;59.304;18.294;2023-02-12T00:17:32;102816.00;;;-2.66;67.85
76311;BME280;65120;59.304;18.294;2023-02-12T00:19:59;102818.56;;;-2.66;68.02
76311;BME280;65120;59.304;18.294;2023-02-12T00:22:26;102815.13;;;-2.66;67.74
76311;BME280;65120;59.304;18.294;2023-02-12T00:24:55;102817.56;;;-2.68;68.00
76311;BME280;65120;59.304;18.294;2023-02-12T00:27:22;102805.56;;;-2.69;67.76
76311;BME280;65120;59.304;18.294;2023-02-12T00:29:49;102798.75;;;-2.68;67.91
76311;BME280;65120;59.304;18.294;2023-02-12T00:32:16;102796.88;;;-2.71;67.87
76311;BME280;65120;59.304;18.294;2023-02-12T00:34:44;102806.34;;;-2.70;67.87
76311;BME280;65120;59.304;18.294;2023-02-12T00:37:11;102807.13;;;-2.71;67.85
76311;BME280;65120;59.304;18.294;2023-02-12T00:39:38;102805.34;;;-2.72;67.63
76311;BME280;65120;59.304;18.294;2023-02-12T00:42:06;102805.34;;;-2.72;67.72
76311;BME280;65120;59.304;18.294;2023-02-12T00:44:34;102801.91;;;-2.73;67.98
76311;BME280;65120;59.304;18.294;2023-02-12T00:47:00;102790.69;;;-2.75;67.80
76311;BME280;65120;59.304;18.294;2023-02-12T00:49:27;102794.91;;;-2.75;67.65
76311;BME280;65120;59.304;18.294;2023-02-12T00:51:58;102799.03;;;-2.77;67.67
76311;BME280;65120;59.304;18.294;2023-02-12T00:54:25;102798.03;;;-2.79;67.62
76311;BME280;65120;59.304;18.294;2023-02-12T00:56:52;102798.03;;;-2.79;67.64
76311;BME280;65120;59.304;18.294;2023-02-12T00:59:21;102799.63;;;-2.81;67.53
76311;BME280;65120;59.304;18.294;2023-02-12T01:01:49;102802.06;;;-2.83;67.79
76311;BME280;65120;59.304;18.294;2023-02-12T01:04:16;102807.84;;;-2.85;67.72
76311;BME280;65120;59.304;18.294;2023-02-12T01:06:43;102799.19;;;-2.87;67.94
76311;BME280;65120;59.304;18.294;2023-02-12T01:09:10;102802.63;;;-2.87;67.60
76311;BME280;65120;59.304;18.294;2023-02-12T01:11:37;102796.66;;;-2.87;67.56
76311;BME280;65120;59.304;18.294;2023-02-12T01:14:04;102801.63;;;-2.89;67.65
76311;BME280;65120;59.304;18.294;2023-02-12T01:16:32;102817.88;;;-2.88;67.67
76311;BME280;65120;59.304;18.294;2023-02-12T01:19:02;102813.53;;;-2.89;67.63
76311;BME280;65120;59.304;18.294;2023-02-12T01:21:31;102817.88;;;-2.88;67.95
76311;BME280;65120;59.304;18.294;2023-02-12T01:23:59;102813.53;;;-2.89;67.68
76311;BME280;65120;59.304;18.294;2023-02-12T01:26:27;102810.97;;;-2.89;67.77
76311;BME280;65120;59.304;18.294;2023-02-12T01:28:56;102803.19;;;-2.91;67.93
76311;BME280;65120;59.304;18.294;2023-02-12T01:31:25;102805.00;;;-2.90;67.80
76311;BME280;65120;59.304;18.294;2023-02-12T01:33:56;102800.63;;;-2.91;67.74
76311;BME280;65120;59.304;18.294;2023-02-12T01:36:24;102806.63;;;-2.90;67.67
76311;BME280;65120;59.304;18.294;2023-02-12T01:38:51;102810.97;;;-2.89;67.81
76311;BME280;65120;59.304;18.294;2023-02-12T01:41:20;102800.75;;;-2.89;68.08
76311;BME280;65120;59.304;18.294;2023-02-12T01:44:07;102806.75;;;-2.89;67.70
76311;BME280;65120;59.304;18.294;2023-02-12T01:46:34;102801.44;;;-2.92;67.64
76311;BME280;65120;59.304;18.294;2023-02-12T01:49:04;102797.41;;;-2.88;67.92
76311;BME280;65120;59.304;18.294;2023-02-12T01:51:33;102799.06;;;-2.89;67.67
76311;BME280;65120;59.304;18.294;2023-02-12T01:54:03;102802.53;;;-2.88;67.84
76311;BME280;65120;59.304;18.294;2023-02-12T01:56:31;102798.97;;;-2.90;67.81
76311;BME280;65120;59.304;18.294;2023-02-12T01:58:58;102790.09;;;-2.96;67.59
76311;BME280;65120;59.304;18.294;2023-02-12T02:01:28;102810.31;;;-2.87;67.90
76311;BME280;65120;59.304;18.294;2023-02-12T02:03:59;102809.50;;;-2.86;67.85
76311;BME280;65120;59.304;18.294;2023-02-12T02:06:31;102805.28;;;-2.85;67.89
76311;BME280;65120;59.304;18.294;2023-02-12T02:08:59;102804.41;;;-2.86;67.95
76311;BME280;65120;59.304;18.294;2023-02-12T02:11:27;102805.41;;;-2.84;67.84
76311;BME280;65120;59.304;18.294;2023-02-12T02:14:11;102792.63;;;-2.84;67.69
76311;BME280;65120;59.304;18.294;2023-02-12T02:17:02;102777.81;;;-2.88;67.83
76311;BME280;65120;59.304;18.294;2023-02-12T02:22:33;102767.72;;;-2.86;68.00
76311;BME280;65120;59.304;18.294;2023-02-12T02:25:29;102772.25;;;-2.82;68.17
76311;BME280;65120;59.304;18.294;2023-02-12T02:28:15;102773.13;;;-2.82;68.10
76311;BME280;65120;59.304;18.294;2023-02-12T02:30:51;102778.25;;;-2.82;67.84
76311;BME280;65120;59.304;18.294;2023-02-12T02:33:35;102781.78;;;-2.80;68.13
76311;BME280;65120;59.304;18.294;2023-02-12T02:36:13;102777.56;;;-2.79;68.11
76311;BME280;65120;59.304;18.294;2023-02-12T02:38:43;102783.59;;;-2.79;68.34
76311;BME280;65120;59.304;18.294;2023-02-12T02:41:16;102776.88;;;-2.77;67.94
76311;BME280;65120;59.304;18.294;2023-02-12T02:43:49;102768.44;;;-2.76;68.34
76311;BME280;65120;59.304;18.294;2023-02-12T02:46:24;102768.66;;;-2.73;68.48
76311;BME280;65120;59.304;18.294;2023-02-12T02:48:57;102748.88;;;-2.75;68.61
76311;BME280;65120;59.304;18.294;2023-02-12T02:51:29;102756.84;;;-2.71;68.69
76311;BME280;65120;59.304;18.294;2023-02-12T02:54:02;102749.28;;;-2.69;68.67
76311;BME280;65120;59.304;18.294;2023-02-12T02:56:32;102757.94;;;-2.67;68.62
76311;BME280;65120;59.304;18.294;2023-02-12T02:59:04;102760.59;;;-2.65;68.32
76311;BME280;65120;59.304;18.294;2023-02-12T03:01:38;102757.34;;;-2.63;68.43
76311;BME280;65120;59.304;18.294;2023-02-12T03:04:09;102743.56;;;-2.65;68.58
76311;BME280;65120;59.304;18.294;2023-02-12T03:06:41;102758.56;;;-2.58;68.65
76311;BME280;65120;59.304;18.294;2023-02-12T03:09:14;102757.69;;;-2.58;68.73
76311;BME280;65120;59.304;18.294;2023-02-12T03:11:42;102763.09;;;-2.54;69.01
76311;BME280;65120;59.304;18.294;2023-02-12T03:14:12;102746.97;;;-2.53;68.64
76311;BME280;65120;59.304;18.294;2023-02-12T03:16:47;102743.59;;;-2.52;68.89
76311;BME280;65120;59.304;18.294;2023-02-12T03:19:18;102749.72;;;-2.50;68.83
76311;BME280;65120;59.304;18.294;2023-02-12T03:21:49;102755.03;;;-2.46;68.82
76311;BME280;65120;59.304;18.294;2023-02-12T03:24:20;102745.69;;;-2.46;68.83
76311;BME280;65120;59.304;18.294;2023-02-12T03:26:52;102742.44;;;-2.43;68.67
76311;BME280;65120;59.304;18.294;2023-02-12T03:29:20;102752.00;;;-2.41;68.86
76311;BME280;65120;59.304;18.294;2023-02-12T03:31:57;102746.00;;;-2.41;68.91
76311;BME280;65120;59.304;18.294;2023-02-12T03:34:31;102746.28;;;-2.37;68.92
76311;BME280;65120;59.304;18.294;2023-02-12T03:37:04;102737.94;;;-2.34;68.75
76311;BME280;65120;59.304;18.294;2023-02-12T03:39:39;102744.03;;;-2.32;68.83
76311;BME280;65120;59.304;18.294;2023-02-12T03:42:14;102727.00;;;-2.32;68.89
76311;BME280;65120;59.304;18.294;2023-02-12T03:44:52;102718.53;;;-2.31;68.92
76311;BME280;65120;59.304;18.294;2023-02-12T03:47:26;102720.53;;;-2.27;69.02
76311;BME280;65120;59.304;18.294;2023-02-12T03:50:02;102724.94;;;-2.24;68.78
76311;BME280;65120;59.304;18.294;2023-02-12T03:52:33;102724.16;;;-2.23;68.79
76311;BME280;65120;59.304;18.294;2023-02-12T03:55:00;102718.28;;;-2.22;68.54
76311;BME280;65120;59.304;18.294;2023-02-12T03:57:30;102720.91;;;-2.20;68.97
76311;BME280;65120;59.304;18.294;2023-02-12T04:00:02;102713.34;;;-2.19;68.93
76311;BME280;65120;59.304;18.294;2023-02-12T04:02:32;102706.44;;;-2.20;69.10
76311;BME280;65120;59.304;18.294;2023-02-12T04:05:03;102706.63;;;-2.17;68.83
76311;BME280;65120;59.304;18.294;2023-02-12T04:07:31;102701.69;;;-2.14;68.81
76311;BME280;65120;59.304;18.294;2023-02-12T04:09:58;102698.44;;;-2.11;68.92
76311;BME280;65120;59.304;18.294;2023-02-12T04:12:38;102681.31;;;-2.12;69.12
76311;BME280;65120;59.304;18.294;2023-02-12T04:15:22;102679.84;;;-2.09;68.81
76311;BME280;65120;59.304;18.294;2023-02-12T04:17:59;102674.03;;;-2.06;68.90
76311;BME280;65120;59.304;18.294;2023-02-12T04:20:39;102680.03;;;-2.06;68.53
76311;BME280;65120;59.304;18.294;2023-02-12T04:23:15;102674.72;;;-2.09;69.03
76311;BME280;65120;59.304;18.294;2023-02-12T04:25:52;102684.56;;;-2.01;68.81
76311;BME280;65120;59.304;18.294;2023-02-12T04:28:30;102683.78;;;-2.00;69.05
76311;BME280;65120;59.304;18.294;2023-02-12T04:31:03;102679.66;;;-1.98;69.05
76311;BME280;65120;59.304;18.294;2023-02-12T04:33:37;102686.63;;;-1.96;68.81
76311;BME280;65120;59.304;18.294;2023-02-12T04:36:09;102687.41;;;-1.97;68.74
76311;BME280;65120;59.304;18.294;2023-02-12T04:38:42;102683.38;;;-1.93;68.71
76311;BME280;65120;59.304;18.294;2023-02-12T04:41:10;102674.09;;;-1.91;68.65
76311;BME280;65120;59.304;18.294;2023-02-12T04:43:37;102675.91;;;-1.90;69.13
76311;BME280;65120;59.304;18.294;2023-02-12T04:46:06;102675.97;;;-1.89;69.30
76311;BME280;65120;59.304;18.294;2023-02-12T04:48:36;102676.09;;;-1.87;69.09
76311;BME280;65120;59.304;18.294;2023-02-12T04:51:08;102674.47;;;-1.85;68.78
76311;BME280;65120;59.304;18.294;2023-02-12T04:53:35;102677.25;;;-1.82;69.11
76311;BME280;65120;59.304;18.294;2023-02-12T04:56:03;102675.59;;;-1.82;69.54
76311;BME280;65120;59.304;18.294;2023-02-12T04:58:30;102674.91;;;-1.79;69.17
76311;BME280;65120;59.304;18.294;2023-02-12T05:00:57;102671.53;;;-1.78;69.17
76311;BME280;65120;59.304;18.294;2023-02-12T05:03:24;102675.06;;;-1.76;68.74
76311;BME280;65120;59.304;18.294;2023-02-12T05:05:52;102661.56;;;-1.73;68.90
76311;BME280;65120;59.304;18.294;2023-02-12T05:08:19;102663.34;;;-1.72;69.28
76311;BME280;65120;59.304;18.294;2023-02-12T05:10:46;102660.97;;;-1.69;69.20
76311;BME280;65120;59.304;18.294;2023-02-12T05:13:13;102650.81;;;-1.68;69.31
76311;BME280;65120;59.304;18.294;2023-02-12T05:15:40;102650.09;;;-1.65;69.30
76311;BME280;65120;59.304;18.294;2023-02-12T05:18:07;102641.63;;;-1.64;68.77
76311;BME280;65120;59.304;18.294;2023-02-12T05:20:33;102638.38;;;-1.62;69.43
76311;BME280;65120;59.304;18.294;2023-02-12T05:23:02;102627.31;;;-1.61;69.09
76311;BME280;65120;59.304;18.294;2023-02-12T05:25:29;102627.50;;;-1.58;69.28
76311;BME280;65120;59.304;18.294;2023-02-12T05:27:56;102616.50;;;-1.56;69.24
76311;BME280;65120;59.304;18.294;2023-02-12T05:30:23;102618.31;;;-1.54;69.33
76311;BME280;65120;59.304;18.294;2023-02-12T05:32:50;102614.09;;;-1.53;69.26
76311;BME280;65120;59.304;18.294;2023-02-12T05:35:16;102611.72;;;-1.50;69.48
76311;BME280;65120;59.304;18.294;2023-02-12T05:37:43;102597.31;;;-1.48;69.93
76311;BME280;65120;59.304;18.294;2023-02-12T05:40:12;102592.28;;;-1.47;69.37
76311;BME280;65120;59.304;18.294;2023-02-12T05:42:39;102597.59;;;-1.44;69.44
76311;BME280;65120;59.304;18.294;2023-02-12T05:45:07;102590.00;;;-1.42;69.82
76311;BME280;65120;59.304;18.294;2023-02-12T05:47:34;102584.16;;;-1.40;69.44
76311;BME280;65120;59.304;18.294;2023-02-12T05:50:01;102576.56;;;-1.38;69.56
76311;BME280;65120;59.304;18.294;2023-02-12T05:52:28;102570.75;;;-1.36;69.70
76311;BME280;65120;59.304;18.294;2023-02-12T05:54:54;102569.94;;;-1.34;69.17
76311;BME280;65120;59.304;18.294;2023-02-12T05:57:23;102569.22;;;-1.32;69.41
76311;BME280;65120;59.304;18.294;2023-02-12T05:59:50;102569.34;;;-1.30;69.67
76311;BME280;65120;59.304;18.294;2023-02-12T06:02:17;102569.50;;;-1.27;69.64
76311;BME280;65120;59.304;18.294;2023-02-12T06:04:44;102559.25;;;-1.27;69.43
76311;BME280;65120;59.304;18.294;2023-02-12T06:07:10;102563.69;;;-1.25;69.79
76311;BME280;65120;59.304;18.294;2023-02-12T06:09:37;102568.09;;;-1.22;69.80
76311;BME280;65120;59.304;18.294;2023-02-12T06:12:04;102568.19;;;-1.21;69.75
76311;BME280;65120;59.304;18.294;2023-02-12T06:14:33;102568.28;;;-1.19;69.58
76311;BME280;65120;59.304;18.294;2023-02-12T06:16:59;102565.00;;;-1.17;69.85
76311;BME280;65120;59.304;18.294;2023-02-12T06:19:26;102560.84;;;-1.15;69.89
76311;BME280;65120;59.304;18.294;2023-02-12T06:21:53;102557.50;;;-1.14;69.50
76311;BME280;65120;59.304;18.294;2023-02-12T06:24:20;102562.69;;;-1.12;69.31
76311;BME280;65120;59.304;18.294;2023-02-12T06:26:48;102556.88;;;-1.09;69.58
76311;BME280;65120;59.304;18.294;2023-02-12T06:29:16;102562.00;;;-1.09;70.18
76311;BME280;65120;59.304;18.294;2023-02-12T06:31:44;102551.66;;;-1.11;69.97
76311;BME280;65120;59.304;18.294;2023-02-12T06:34:13;102568.28;;;-1.04;70.02
76311;BME280;65120;59.304;18.294;2023-02-12T06:36:43;102553.88;;;-1.02;69.59
76311;BME280;65120;59.304;18.294;2023-02-12T06:39:11;102544.16;;;-1.08;69.49
76311;BME280;65120;59.304;18.294;2023-02-12T06:41:38;102545.63;;;-0.97;69.47
76311;BME280;65120;59.304;18.294;2023-02-12T06:44:05;102550.84;;;-0.95;69.90
76311;BME280;65120;59.304;18.294;2023-02-12T06:46:33;102561.19;;;-0.94;69.87
76311;BME280;65120;59.304;18.294;2023-02-12T06:49:01;102560.50;;;-0.91;69.70
76311;BME280;65120;59.304;18.294;2023-02-12T06:51:28;102550.31;;;-0.89;70.07
76311;BME280;65120;59.304;18.294;2023-02-12T06:53:56;102550.41;;;-0.88;69.57
76311;BME280;65120;59.304;18.294;2023-02-12T06:56:24;102548.78;;;-0.86;70.06
76311;BME280;65120;59.304;18.294;2023-02-12T06:58:52;102550.66;;;-0.83;70.39
76311;BME280;65120;59.304;18.294;2023-02-12T07:01:23;102545.63;;;-0.82;69.94
76311;BME280;65120;59.304;18.294;2023-02-12T07:03:51;102542.25;;;-0.81;70.25
76311;BME280;65120;59.304;18.294;2023-02-12T07:06:20;102537.28;;;-0.78;69.85
76311;BME280;65120;59.304;18.294;2023-02-12T07:08:47;102534.81;;;-0.76;69.79
76311;BME280;65120;59.304;18.294;2023-02-12T07:11:14;102546.13;;;-0.73;69.88
76311;BME280;65120;59.304;18.294;2023-02-12T07:13:42;102540.13;;;-0.73;70.42
76311;BME280;65120;59.304;18.294;2023-02-12T07:16:11;102530.91;;;-0.70;70.02
76311;BME280;65120;59.304;18.294;2023-02-12T07:18:38;102524.19;;;-0.68;69.88
76311;BME280;65120;59.304;18.294;2023-02-12T07:21:06;102532.84;;;-0.65;70.17
76311;BME280;65120;59.304;18.294;2023-02-12T07:23:35;102529.53;;;-0.63;70.15
76311;BME280;65120;59.304;18.294;2023-02-12T07:26:05;102517.63;;;-0.62;69.85
76311;BME280;65120;59.304;18.294;2023-02-12T07:28:32;102516.00;;;-0.60;69.86
76311;BME280;65120;59.304;18.294;2023-02-12T07:31:01;102513.59;;;-0.57;70.59
76311;BME280;65120;59.304;18.294;2023-02-12T07:33:31;102515.44;;;-0.55;70.39
76311;BME280;65120;59.304;18.294;2023-02-12T07:35:59;102518.91;;;-0.54;69.86
76311;BME280;65120;59.304;18.294;2023-02-12T07:38:26;102523.41;;;-0.50;70.17
76311;BME280;65120;59.304;18.294;2023-02-12T07:40:55;102526.03;;;-0.49;70.15
76311;BME280;65120;59.304;18.294;2023-02-12T07:43:23;102528.72;;;-0.47;69.87
76311;BME280;65120;59.304;18.294;2023-02-12T07:45:50;102528.00;;;-0.44;69.86
76311;BME280;65120;59.304;18.294;2023-02-12T07:48:17;102530.75;;;-0.41;70.34
76311;BME280;65120;59.304;18.294;2023-02-12T07:50:43;102537.72;;;-0.39;70.49
76311;BME280;65120;59.304;18.294;2023-02-12T07:53:10;102536.13;;;-0.37;70.76
76311;BME280;65120;59.304;18.294;2023-02-12T07:55:37;102535.31;;;-0.36;70.23
76311;BME280;65120;59.304;18.294;2023-02-12T07:58:05;102538.94;;;-0.32;70.36
76311;BME280;65120;59.304;18.294;2023-02-12T08:00:32;102530.50;;;-0.30;70.91
76311;BME280;65120;59.304;18.294;2023-02-12T08:02:59;102522.00;;;-0.29;70.23
76311;BME280;65120;59.304;18.294;2023-02-12T08:05:27;102514.50;;;-0.26;70.78
76311;BME280;65120;59.304;18.294;2023-02-12T08:07:54;102511.97;;;-0.24;70.70
76311;BME280;65120;59.304;18.294;2023-02-12T08:10:21;102504.44;;;-0.21;70.57
76311;BME280;65120;59.304;18.294;2023-02-12T08:12:48;102502.91;;;-0.17;70.46
76311;BME280;65120;59.304;18.294;2023-02-12T08:15:16;102505.56;;;-0.16;70.38
76311;BME280;65120;59.304;18.294;2023-02-12T08:17:43;102509.28;;;-0.11;70.90
76311;BME280;65120;59.304;18.294;2023-02-12T08:20:10;102489.44;;;-0.13;70.69
76311;BME280;65120;59.304;18.294;2023-02-12T08:22:37;102484.63;;;-0.07;70.60
76311;BME280;65120;59.304;18.294;2023-02-12T08:25:05;102467.69;;;-0.04;70.30
76311;BME280;65120;59.304;18.294;2023-02-12T08:27:32;102469.53;;;-0.01;70.50
76311;BME280;65120;59.304;18.294;2023-02-12T08:29:59;102467.94;;;0.01;70.31
76311;BME280;65120;59.304;18.294;2023-02-12T08:32:27;102465.56;;;0.06;70.85
76311;BME280;65120;59.304;18.294;2023-02-12T08:34:56;102463.09;;;0.07;70.69
76311;BME280;65120;59.304;18.294;2023-02-12T08:37:23;102452.97;;;0.10;70.90
76311;BME280;65120;59.304;18.294;2023-02-12T08:39:50;102460.69;;;0.10;70.91
76311;BME280;65120;59.304;18.294;2023-02-12T08:42:17;102464.44;;;0.17;71.14
76311;BME280;65120;59.304;18.294;2023-02-12T08:44:44;102461.16;;;0.19;70.71
76311;BME280;65120;59.304;18.294;2023-02-12T08:47:11;102463.00;;;0.22;70.70
76311;BME280;65120;59.304;18.294;2023-02-12T08:49:39;102458.00;;;0.25;71.17
76311;BME280;65120;59.304;18.294;2023-02-12T08:52:06;102456.50;;;0.29;70.67
76311;BME280;65120;59.304;18.294;2023-02-12T08:54:33;102463.44;;;0.31;70.82
76311;BME280;65120;59.304;18.294;2023-02-12T08:57:01;102467.88;;;0.34;70.84
76311;BME280;65120;59.304;18.294;2023-02-12T08:59:28;102463.69;;;0.36;70.72
76311;BME280;65120;59.304;18.294;2023-02-12T09:01:55;102460.56;;;0.41;71.17
76311;BME280;65120;59.304;18.294;2023-02-12T09:04:24;102470.09;;;0.44;71.32
76311;BME280;65120;59.304;18.294;2023-02-12T09:06:53;102461.72;;;0.48;70.91
76311;BME280;65120;59.304;18.294;2023-02-12T09:09:20;102465.25;;;0.50;70.74
76311;BME280;65120;59.304;18.294;2023-02-12T09:11:48;102480.13;;;0.56;71.40
76311;BME280;65120;59.304;18.294;2023-02-12T09:14:17;102480.25;;;0.59;70.58
76311;BME280;65120;59.304;18.294;2023-02-12T09:16:48;102471.91;;;0.63;71.16
76311;BME280;65120;59.304;18.294;2023-02-12T09:19:17;102467.78;;;0.66;71.10
76311;BME280;65120;59.304;18.294;2023-02-12T09:21:43;102478.22;;;0.70;70.50
76311;BME280;65120;59.304;18.294;2023-02-12T09:24:12;102472.34;;;0.72;71.56
76311;BME280;65120;59.304;18.294;2023-02-12T09:26:39;102481.97;;;0.76;71.31
76311;BME280;65120;59.304;18.294;2023-02-12T09:29:06;102477.06;;;0.81;71.42
76311;BME280;65120;59.304;18.294;2023-02-12T09:31:33;102472.06;;;0.84;70.78
76311;BME280;65120;59.304;18.294;2023-02-12T09:34:01;102467.06;;;0.87;71.00
76311;BME280;65120;59.304;18.294;2023-02-12T09:36:28;102457.81;;;0.90;70.63
76311;BME280;65120;59.304;18.294;2023-02-12T09:38:55;102446.78;;;0.93;71.38
76311;BME280;65120;59.304;18.294;2023-02-12T09:44:34;102433.56;;;1.03;70.49
76311;BME280;65120;59.304;18.294;2023-02-12T09:47:07;102431.13;;;1.06;70.82
76311;BME280;65120;59.304;18.294;2023-02-12T09:49:51;102427.81;;;1.09;71.31
76311;BME280;65120;59.304;18.294;2023-02-12T09:52:24;102418.66;;;1.16;71.04
76311;BME280;65120;59.304;18.294;2023-02-12T09:54:52;102413.66;;;1.19;70.77
76311;BME280;65120;59.304;18.294;2023-02-12T09:57:24;102400.88;;;1.20;70.91
76311;BME280;65120;59.304;18.294;2023-02-12T09:59:57;102398.50;;;1.25;70.98
76311;BME280;65120;59.304;18.294;2023-02-12T10:02:25;102390.91;;;1.28;71.23
76311;BME280;65120;59.304;18.294;2023-02-12T10:04:53;102403.13;;;1.32;71.37
76311;BME280;65120;59.304;18.294;2023-02-12T10:07:30;102395.53;;;1.35;70.93
76311;BME280;65120;59.304;18.294;2023-02-12T10:10:20;102400.09;;;1.41;71.15
76311;BME280;65120;59.304;18.294;2023-02-12T10:12:57;102400.31;;;1.45;70.73
76311;BME280;65120;59.304;18.294;2023-02-12T10:15:37;102399.63;;;1.49;70.71
76311;BME280;65120;59.304;18.294;2023-02-12T10:18:21;102385.16;;;1.53;70.67
76311;BME280;65120;59.304;18.294;2023-02-12T10:21:00;102400.75;;;1.56;71.25
76311;BME280;65120;59.304;18.294;2023-02-12T10:23:39;102396.69;;;1.61;71.12
76311;BME280;65120;59.304;18.294;2023-02-12T10:26:18;102392.56;;;1.65;71.61
76311;BME280;65120;59.304;18.294;2023-02-12T10:28:48;102387.53;;;1.68;70.59
76311;BME280;65120;59.304;18.294;2023-02-12T10:31:21;102383.41;;;1.71;70.77
76311;BME280;65120;59.304;18.294;2023-02-12T10:33:50;102384.41;;;1.75;70.61
76311;BME280;65120;59.304;18.294;2023-02-12T10:36:26;102371.53;;;1.75;70.62
76311;BME280;65120;59.304;18.294;2023-02-12T10:39:00;102371.88;;;1.83;70.87
76311;BME280;65120;59.304;18.294;2023-02-12T10:41:29;102378.91;;;1.87;71.13
76311;BME280;65120;59.304;18.294;2023-02-12T10:43:58;102366.16;;;1.90;71.02
76311;BME280;65120;59.304;18.294;2023-02-12T10:46:28;102360.25;;;1.92;71.40
76311;BME280;65120;59.304;18.294;2023-02-12T10:48:57;102367.25;;;1.95;70.43
76311;BME280;65120;59.304;18.294;2023-02-12T10:51:55;102350.19;;;1.98;70.50
76311;BME280;65120;59.304;18.294;2023-02-12T10:54:40;102327.72;;;1.94;70.64
76311;BME280;65120;59.304;18.294;2023-02-12T10:57:10;102329.78;;;2.03;70.45
76311;BME280;65120;59.304;18.294;2023-02-12T10:59:39;102330.75;;;2.05;70.38
76311;BME280;65120;59.304;18.294;2023-02-12T11:02:18;102325.63;;;2.07;70.94
76311;BME280;65120;59.304;18.294;2023-02-12T11:04:45;102324.03;;;2.10;70.47
76311;BME280;65120;59.304;18.294;2023-02-12T11:07:12;102330.22;;;2.14;70.80
76311;BME280;65120;59.304;18.294;2023-02-12T11:09:41;102325.13;;;2.15;70.63
76311;BME280;65120;59.304;18.294;2023-02-12T11:12:28;102327.91;;;2.20;70.60
76311;BME280;65120;59.304;18.294;2023-02-12T11:14:59;102317.47;;;2.17;70.61
76311;BME280;65120;59.304;18.294;2023-02-12T11:17:32;102330.59;;;2.23;70.66
76311;BME280;65120;59.304;18.294;2023-02-12T11:20:21;102319.53;;;2.25;70.29
76311;BME280;65120;59.304;18.294;2023-02-12T11:22:54;102323.03;;;2.28;70.80
76311;BME280;65120;59.304;18.294;2023-02-12T11:25:22;102322.28;;;2.30;70.57
76311;BME280;65120;59.304;18.294;2023-02-12T11:28:03;102330.22;;;2.35;70.19
76311;BME280;65120;59.304;18.294;2023-02-12T11:30:32;102308.75;;;2.36;70.86
76311;BME280;65120;59.304;18.294;2023-02-12T11:33:16;102304.53;;;2.38;70.41
76311;BME280;65120;59.304;18.294;2023-02-12T11:35:49;102309.81;;;2.41;70.67
76311;BME280;65120;59.304;18.294;2023-02-12T11:38:22;102305.66;;;2.44;70.30
76311;BME280;65120;59.304;18.294;2023-02-12T11:40:54;102311.66;;;2.43;70.19
76311;BME280;65120;59.304;18.294;2023-02-12T11:43:22;102315.28;;;2.48;70.35
76311;BME280;65120;59.304;18.294;2023-02-12T11:45:52;102312.81;;;2.52;70.65
76311;BME280;65120;59.304;18.294;2023-02-12T11:48:23;102323.25;;;2.55;70.73
76311;BME280;65120;59.304;18.294;2023-02-12T11:50:52;102325.00;;;2.56;70.23
76311;BME280;65120;59.304;18.294;2023-02-12T11:53:23;102324.25;;;2.58;70.97
76311;BME280;65120;59.304;18.294;2023-02-12T11:55:54;102312.31;;;2.60;70.70
76311;BME280;65120;59.304;18.294;2023-02-12T11:58:23;102310.69;;;2.62;70.99
76311;BME280;65120;59.304;18.294;2023-02-12T12:00:55;102303.84;;;2.64;70.87
76311;BME280;65120;59.304;18.294;2023-02-12T12:03:28;102299.72;;;2.68;70.33
76311;BME280;65120;59.304;18.294;2023-02-12T12:06:02;102295.31;;;2.65;70.52
76311;BME280;65120;59.304;18.294;2023-02-12T12:08:37;102307.59;;;2.73;70.80
76311;BME280;65120;59.304;18.294;2023-02-12T12:11:10;102301.69;;;2.75;70.91
76311;BME280;65120;59.304;18.294;2023-02-12T12:13:43;102298.31;;;2.76;70.65
76311;BME280;65120;59.304;18.294;2023-02-12T12:16:19;102287.19;;;2.79;70.87
76311;BME280;65120;59.304;18.294;2023-02-12T12:19:11;102291.59;;;2.81;70.24
76311;BME280;65120;59.304;18.294;2023-02-12T12:22:10;102295.13;;;2.83;70.00
76311;BME280;65120;59.304;18.294;2023-02-12T12:24:44;102286.53;;;2.84;70.06
76311;BME280;65120;59.304;18.294;2023-02-12T12:27:18;102285.78;;;2.87;70.59
76311;BME280;65120;59.304;18.294;2023-02-12T12:30:10;102288.44;;;2.88;69.93
76311;BME280;65120;59.304;18.294;2023-02-12T12:32:42;102289.38;;;2.90;69.97
76311;BME280;65120;59.304;18.294;2023-02-12T12:35:15;102283.38;;;2.91;70.95
76311;BME280;65120;59.304;18.294;2023-02-12T12:37:46;102291.22;;;2.95;70.66
76311;BME280;65120;59.304;18.294;2023-02-12T12:40:33;102281.84;;;2.97;70.43
76311;BME280;65120;59.304;18.294;2023-02-12T12:43:11;102279.28;;;2.97;70.56
76311;BME280;65120;59.304;18.294;2023-02-12T12:45:55;102284.53;;;3.00;69.91
76311;BME280;65120;59.304;18.294;2023-02-12T12:48:39;102273.38;;;3.01;70.18
76311;BME280;65120;59.304;18.294;2023-02-12T12:51:31;102282.00;;;3.01;70.37
76311;BME280;65120;59.304;18.294;2023-02-12T12:54:17;102275.16;;;3.02;70.33
76311;BME280;65120;59.304;18.294;2023-02-12T12:56:59;102275.22;;;3.03;69.88
76311;BME280;65120;59.304;18.294;2023-02-12T12:59:54;102270.13;;;3.05;69.93
76311;BME280;65120;59.304;18.294;2023-02-12T13:08:32;102230.44;;;3.03;70.51
76311;BME280;65120;59.304;18.294;2023-02-12T13:11:07;102254.84;;;3.11;70.33
76311;BME280;65120;59.304;18.294;2023-02-12T13:13:42;102249.69;;;3.11;70.41